Big Bear Station Historical Data
Daily Summary for May 10, 2019 Units:  English    Metric   Both
Next Day »
Daily Weekly Monthly Yearly Custom
  High: Low: Average:
Temperature: 52.5 °F 39.7 °F 44.5 °F
Dew Point: 44.9 °F 36.4 °F 41.2 °F
Humidity: 97% 73% 88%
Wind Speed: 3.7mph 0mph 0.4mph
Wind Gust: -999mph - -
Wind- - WSW
Pressure: 23.40 in 23.24 in -
Precipitation: 0.26 in    
Historical Graphs
 
 
Tabular Data for May 10, 2019
Time Temperature Dew Point Pressure Wind Wind Speed Wind Gust Humidity Rainfall Rate (Hourly)
00:05 43.7 °F 39.2 °F 23.29 in Calm   -999 mph 84% 0.00 in
00:20 43 °F 38.8 °F 23.28 in Calm   -999 mph 85% 0.00 in
00:35 42.4 °F 38.5 °F 23.28 in Calm   -999 mph 86% 0.00 in
00:50 41.9 °F 38.3 °F 23.28 in Calm   -999 mph 87% 0.00 in
01:05 41.2 °F 37.6 °F 23.27 in Calm   -999 mph 87% 0.00 in
01:21 40.8 °F 37.5 °F 23.27 in Calm   -999 mph 88% 0.00 in
01:36 40.6 °F 37.6 °F 23.27 in Calm   -999 mph 89% 0.00 in
01:51 40.3 °F 37 °F 23.27 in Calm   -999 mph 88% 0.00 in
02:06 39.9 °F 36.9 °F 23.26 in Calm   -999 mph 89% 0.00 in
02:21 39.9 °F 36.6 °F 23.26 in Calm   -999 mph 88% 0.00 in
02:37 39.7 °F 36.4 °F 23.26 in Calm   -999 mph 88% 0.00 in
02:52 40.6 °F 37 °F 23.25 in Calm   -999 mph 87% 0.00 in
03:07 41 °F 37.4 °F 23.25 in Calm   -999 mph 87% 0.00 in
03:22 41 °F 37.7 °F 23.25 in Calm   -999 mph 88% 0.00 in
03:37 41.7 °F 38.4 °F 23.25 in Calm   -999 mph 88% 0.00 in
03:53 42.6 °F 39.3 °F 23.25 in Calm   -999 mph 88% 0.00 in
04:08 42.6 °F 39 °F 23.25 in Calm   -999 mph 87% 0.00 in
04:23 42.6 °F 39 °F 23.25 in Calm   -999 mph 87% 0.00 in
04:38 43.2 °F 40.5 °F 23.25 in Calm   -999 mph 90% 0.00 in
04:53 43.5 °F 40.8 °F 23.25 in Calm   -999 mph 90% 0.00 in
05:09 43.3 °F 40.6 °F 23.25 in Calm   -999 mph 90% 0.00 in
05:24 43.5 °F 40.8 °F 23.24 in Calm   -999 mph 90% 0.00 in
05:39 42.8 °F 39.8 °F 23.24 in Calm   -999 mph 89% 0.00 in
05:54 42.1 °F 39.4 °F 23.24 in Calm   -999 mph 90% 0.00 in
06:25 42.4 °F 40.2 °F 23.25 in Calm   -999 mph 92% 0.00 in
06:40 42.6 °F 39.6 °F 23.26 in Calm   -999 mph 89% 0.00 in
06:56 43 °F 39.7 °F 23.26 in Calm   -999 mph 88% 0.00 in
07:11 43.2 °F 39.9 °F 23.26 in Calm   -999 mph 88% 0.00 in
07:26 43.5 °F 40.8 °F 23.26 in Calm   -999 mph 90% 0.00 in
07:41 44.1 °F 41.1 °F 23.27 in Calm   -999 mph 89% 0.00 in
07:57 45 °F 41.4 °F 23.27 in Calm   -999 mph 87% 0.00 in
08:12 45.7 °F 41.4 °F 23.27 in Calm   -999 mph 85% 0.00 in
08:27 46.8 °F 42.2 °F 23.27 in Calm   -999 mph 84% 0.00 in
08:42 46.9 °F 42.6 °F 23.28 in Calm   -999 mph 85% 0.00 in
08:57 47.3 °F 42.7 °F 23.28 in Calm   -999 mph 84% 0.00 in
09:13 48.2 °F 43.6 °F 23.28 in Calm   -999 mph 84% 0.00 in
09:28 47.3 °F 42.4 °F 23.28 in Calm   -999 mph 83% 0.00 in
09:44 46.8 °F 42.5 °F 23.28 in NW 3.2 mph -999 mph 85% 0.00 in
09:59 46.6 °F 42.6 °F 23.28 in NW 3.7 mph -999 mph 86% 0.00 in
10:14 46 °F 41.7 °F 23.29 in SW 1.7 mph -999 mph 85% 0.00 in
10:29 45.1 °F 41.2 °F 23.30 in Calm   -999 mph 86% 0.00 in
10:45 45.5 °F 41.9 °F 23.30 in WNW 3.2 mph -999 mph 87% 0.00 in
11:00 45.9 °F 41.9 °F 23.30 in West 2.7 mph -999 mph 86% 0.00 in
11:16 46.6 °F 42.3 °F 23.30 in West 2.7 mph -999 mph 85% 0.00 in
11:31 46.9 °F 42.6 °F 23.30 in NNW 2.7 mph -999 mph 85% 0.00 in
11:46 46.4 °F 42.4 °F 23.31 in Calm   -999 mph 86% 0.00 in
12:01 45.1 °F 41.8 °F 23.31 in NNW 2.7 mph -999 mph 88% 0.00 in
12:17 46.8 °F 42.5 °F 23.31 in West 2.2 mph -999 mph 85% 0.00 in
12:33 47.1 °F 43.1 °F 23.31 in NNW 2.7 mph -999 mph 86% 0.00 in
12:48 46 °F 42.9 °F 23.31 in Calm   -999 mph 89% 0.00 in
13:03 45.9 °F 42.8 °F 23.31 in Calm   -999 mph 89% 0.00 in
13:18 47.1 °F 42.8 °F 23.31 in Calm   -999 mph 85% 0.00 in
13:33 47.7 °F 43.4 °F 23.31 in Calm   -999 mph 85% 0.00 in
13:49 47.8 °F 43.8 °F 23.32 in Calm   -999 mph 86% 0.00 in
14:04 48.6 °F 44.3 °F 23.32 in Calm   -999 mph 85% 0.00 in
14:19 47.8 °F 43.8 °F 23.32 in NW 2.7 mph -999 mph 86% 0.00 in
14:34 48.9 °F 44 °F 23.32 in Calm   -999 mph 83% 0.00 in
14:50 50.5 °F 43.2 °F 23.32 in Calm   -999 mph 76% 0.00 in
15:05 51.4 °F 43 °F 23.31 in Calm   -999 mph 73% 0.00 in
15:20 52 °F 44.3 °F 23.32 in South 1.7 mph -999 mph 75% 0.00 in
15:35 52.2 °F 43.8 °F 23.32 in Calm   -999 mph 73% 0.00 in
15:51 52.5 °F 44.8 °F 23.32 in Calm   -999 mph 75% 0.00 in
16:06 50.5 °F 44.9 °F 23.32 in NW 3.7 mph -999 mph 81% 0.00 in
16:21 48.4 °F 44.1 °F 23.32 in NNE 2.7 mph -999 mph 85% 0.00 in
16:36 47.3 °F 43.6 °F 23.32 in Calm   -999 mph 87% 0.00 in
16:51 46.8 °F 43.1 °F 23.33 in Calm   -999 mph 87% 0.00 in
17:07 47.7 °F 43.7 °F 23.33 in ENE 2.2 mph -999 mph 86% 0.00 in
17:22 46.9 °F 43.8 °F 23.33 in Calm   -999 mph 89% 0.00 in
17:37 45.9 °F 43.1 °F 23.33 in Calm   -999 mph 90% 0.00 in
17:52 44.8 °F 41.8 °F 23.33 in Calm   -999 mph 89% 0.00 in
18:07 44.8 °F 42 °F 23.33 in Calm   -999 mph 90% 0.00 in
18:23 45 °F 42.5 °F 23.33 in Calm   -999 mph 91% 0.00 in
18:38 45 °F 43.1 °F 23.34 in Calm   -999 mph 93% 0.00 in
18:53 44.1 °F 42.5 °F 23.34 in Calm   -999 mph 94% 0.00 in
19:08 44.1 °F 42.5 °F 23.35 in Calm   -999 mph 94% 0.00 in
19:23 43.7 °F 42.1 °F 23.35 in Calm   -999 mph 94% 0.00 in
19:39 43.3 °F 42 °F 23.35 in Calm   -999 mph 95% 0.00 in
19:54 42.6 °F 41 °F 23.36 in Calm   -999 mph 94% 0.00 in
20:09 42.3 °F 40.7 °F 23.36 in Calm   -999 mph 94% 0.00 in
20:24 41.9 °F 40.3 °F 23.36 in Calm   -999 mph 94% 0.00 in
20:40 41.9 °F 40.6 °F 23.37 in Calm   -999 mph 95% 0.00 in
20:55 41.9 °F 40.8 °F 23.38 in Calm   -999 mph 96% 0.00 in
21:10 41.5 °F 40.2 °F 23.38 in Calm   -999 mph 95% 0.00 in
21:25 41.4 °F 40.3 °F 23.38 in Calm   -999 mph 96% 0.00 in
21:40 41.4 °F 40.3 °F 23.38 in Calm   -999 mph 96% 0.00 in
21:56 41.5 °F 40.7 °F 23.38 in Calm   -999 mph 97% 0.00 in
22:11 41.7 °F 40.9 °F 23.38 in Calm   -999 mph 97% 0.00 in
22:26 41.9 °F 41.1 °F 23.39 in Calm   -999 mph 97% 0.00 in
22:41 41.9 °F 41.1 °F 23.39 in Calm   -999 mph 97% 0.00 in
22:56 42.4 °F 41.6 °F 23.39 in Calm   -999 mph 97% 0.00 in
23:12 42.8 °F 42 °F 23.40 in Calm   -999 mph 97% 0.00 in
23:27 42.6 °F 41.8 °F 23.40 in Calm   -999 mph 97% 0.00 in
23:42 42.6 °F 41.8 °F 23.40 in Calm   -999 mph 97% 0.00 in
23:57 42.6 °F 41.8 °F 23.40 in Calm   -999 mph 97% 0.00 in
Big Bear CA Weather